Time;durP1;ratioP1;P1;durP2;ratioP2;P2;SDS_P1;SDS_P2;PMS_P1;PMS_P2;Temp;Humidity;BMP_temperature;BMP_pressure;BME280_temperature;BME280_humidity;BME280_pressure;Samples;Min_cycle;Max_cycle;Signal;HPM_P1;HPM_P2
2022/10/01 00:00:53;;;;;;;35.67;18.25;;;;;;;20.36;56.66;99415.41;5077096;28;20095;-70
2022/10/01 00:03:25;;;;;;;31.27;19.02;;;;;;;20.56;56.70;99432.16;5060311;28;20489;-69
2022/10/01 00:06:01;;;;;;;31.60;18.20;;;;;;;20.71;56.42;99427.19;5043527;28;20075;-70
2022/10/01 00:08:28;;;;;;;38.78;21.90;;;;;;;20.48;56.69;99419.78;5060374;28;20104;-71
2022/10/01 00:10:54;;;;;;;36.60;21.63;;;;;;;20.29;57.16;99406.53;5060437;28;20058;-70
2022/10/01 00:13:19;;;;;;;41.10;22.65;;;;;;;20.39;57.48;99425.72;5077399;28;20389;-70
2022/10/01 00:15:45;;;;;;;47.28;23.30;;;;;;;20.47;57.32;99422.69;5061018;28;20043;-70
2022/10/01 00:18:11;;;;;;;40.90;22.70;;;;;;;20.45;57.70;99425.63;5061592;28;20043;-70
2022/10/01 00:20:42;;;;;;;44.67;23.17;;;;;;;20.37;57.56;99412.47;5078256;28;20059;-69
2022/10/01 00:23:12;;;;;;;48.45;24.17;;;;;;;20.34;57.71;99412.09;5056983;28;20083;-69
2022/10/01 00:25:38;;;;;;;43.35;22.27;;;;;;;20.05;58.10;99398.28;5073466;28;20060;-69
2022/10/01 00:28:04;;;;;;;45.40;23.52;;;;;;;19.99;58.10;99414.50;5073593;28;20504;-70
2022/10/01 00:30:29;;;;;;;51.92;25.38;;;;;;;19.99;58.23;99415.34;5057650;28;20044;-69
2022/10/01 00:32:55;;;;;;;36.78;22.65;;;;;;;20.09;58.30;99423.75;5074324;28;20551;-69
2022/10/01 00:35:21;;;;;;;41.38;22.55;;;;;;;19.97;58.37;99419.31;5056776;28;20042;-69
2022/10/01 00:37:49;;;;;;;42.80;23.00;;;;;;;19.97;58.69;99409.34;5039718;28;20036;-69
2022/10/01 00:40:16;;;;;;;43.17;24.02;;;;;;;19.97;58.68;99417.44;5056653;28;20067;-71
2022/10/01 00:42:42;;;;;;;43.08;23.33;;;;;;;19.94;58.46;99411.69;5073307;28;20047;-70
2022/10/01 00:45:11;;;;;;;47.45;24.67;;;;;;;20.21;58.45;99410.38;5040422;28;20035;-72
2022/10/01 00:47:50;;;;;;;40.92;22.60;;;;;;;20.35;58.08;99413.72;5040226;28;20143;-70
2022/10/01 00:50:30;;;;;;;43.42;23.08;;;;;;;20.35;57.58;99402.94;5073086;28;20066;-70
2022/10/01 00:53:01;;;;;;;37.83;22.15;;;;;;;20.41;57.70;99410.97;5090708;28;20079;-70
2022/10/01 00:55:33;;;;;;;41.83;22.90;;;;;;;20.45;57.53;99404.03;5039688;28;20040;-69
2022/10/01 00:58:02;;;;;;;36.35;22.08;;;;;;;20.45;57.51;99406.75;5072636;28;20945;-69
2022/10/01 01:00:28;;;;;;;38.35;22.25;;;;;;;20.28;57.70;99407.59;5059120;28;20066;-69
2022/10/01 01:02:54;;;;;;;33.25;20.95;;;;;;;20.12;57.82;99387.44;5060471;28;20507;-68
2022/10/01 01:05:22;;;;;;;44.55;22.30;;;;;;;20.15;57.91;99399.66;5093469;28;20040;-69
2022/10/01 01:07:49;;;;;;;39.63;22.65;;;;;;;20.13;58.23;99397.19;5043604;28;20067;-69
2022/10/01 01:10:18;;;;;;;35.00;21.48;;;;;;;20.10;58.33;99414.63;5060326;28;20118;-69
2022/10/01 01:13:02;;;;;;;40.85;23.33;;;;;;;20.14;58.08;99411.50;5077107;28;20116;-69
2022/10/01 01:15:37;;;;;;;45.47;23.23;;;;;;;20.08;58.42;99405.91;5060056;28;20159;-69
2022/10/01 01:18:51;;;;;;;39.90;23.17;;;;;;;20.19;58.06;99403.56;5060514;28;20135;-69
2022/10/01 01:21:33;;;;;;;39.00;22.25;;;;;;;20.25;57.85;99408.84;5015773;28;20065;-69
2022/10/01 01:24:13;;;;;;;40.95;23.30;;;;;;;20.16;57.67;99385.16;5015614;28;20045;-69
2022/10/01 01:26:41;;;;;;;40.17;22.83;;;;;;;20.13;57.98;99412.53;5036607;28;20106;-70
2022/10/01 01:29:23;;;;;;;35.90;20.95;;;;;;;20.36;57.73;99415.41;5056609;28;20052;-69
2022/10/01 01:31:49;;;;;;;40.03;23.75;;;;;;;20.05;58.18;99411.75;5023292;28;20046;-69
2022/10/01 01:34:21;;;;;;;45.33;24.45;;;;;;;20.05;58.32;99397.44;5035861;28;20057;-69
2022/10/01 01:36:53;;;;;;;45.47;24.90;;;;;;;19.98;58.15;99370.59;5053004;28;20037;-69
2022/10/01 01:39:20;;;;;;;48.38;24.13;;;;;;;20.05;58.50;99390.19;5053535;28;20049;-69
2022/10/01 01:41:52;;;;;;;42.80;24.85;;;;;;;19.99;58.64;99398.34;5070390;28;20060;-69
2022/10/01 01:44:22;;;;;;;42.95;23.70;;;;;;;19.97;59.00;99403.97;5037254;28;20049;-69
2022/10/01 01:46:48;;;;;;;;;;;;;;;20.22;57.82;99397.72;5036832;28;20068;-69
2022/10/01 01:49:16;;;;;;;47.05;24.60;;;;;;;19.97;58.59;99390.47;5052836;28;19967;-69
2022/10/01 01:51:45;;;;;;;52.28;27.05;;;;;;;20.04;58.51;99395.81;5052783;28;20110;-70
2022/10/01 01:54:11;;;;;;;53.67;27.92;;;;;;;19.84;58.44;99395.19;5052752;28;20523;-70
2022/10/01 01:56:37;;;;;;;54.97;27.65;;;;;;;19.62;59.35;99396.69;5019744;28;20132;-69
2022/10/01 01:59:04;;;;;;;56.17;27.80;;;;;;;19.67;59.55;99389.56;5036696;28;20463;-70
2022/10/01 02:01:34;;;;;;;50.20;27.73;;;;;;;19.71;59.47;99389.94;5053165;28;20463;-69
2022/10/01 02:04:08;;;;;;;55.10;27.80;;;;;;;19.94;59.01;99392.81;5053056;28;20074;-70
2022/10/01 02:07:00;;;;;;;54.20;27.45;;;;;;;19.75;59.14;99375.81;5036224;28;20056;-69
2022/10/01 02:09:48;;;;;;;57.25;27.58;;;;;;;19.69;59.48;99383.94;5034623;28;20060;-71
2022/10/01 02:12:30;;;;;;;54.30;27.92;;;;;;;19.84;59.47;99387.09;4998607;28;20202;-71
2022/10/01 02:15:19;;;;;;;55.60;28.65;;;;;;;19.74;59.48;99381.41;5053086;28;20391;-71
2022/10/01 02:17:57;;;;;;;57.53;28.40;;;;;;;19.48;59.76;99354.75;5019441;28;20059;-70
2022/10/01 02:20:25;;;;;;;53.53;28.00;;;;;;;19.84;59.12;99370.94;5020357;28;20057;-70
2022/10/01 02:23:02;;;;;;;56.72;27.60;;;;;;;20.02;58.91;99369.06;5053353;28;20131;-69
2022/10/01 02:25:31;;;;;;;47.28;25.48;;;;;;;20.09;58.67;99367.13;5055804;28;20037;-70
2022/10/01 02:28:01;;;;;;;45.55;26.83;;;;;;;20.19;58.09;99371.22;5055340;28;20097;-70
2022/10/01 02:30:31;;;;;;;50.13;24.48;;;;;;;20.20;58.25;99368.28;5072109;28;20135;-69
2022/10/01 02:32:59;;;;;;;53.90;25.45;;;;;;;20.14;58.12;99369.19;5039170;28;20131;-69
2022/10/01 02:35:29;;;;;;;45.97;24.55;;;;;;;20.24;58.00;99371.31;5055948;28;20044;-69
2022/10/01 02:37:56;;;;;;;51.20;25.67;;;;;;;20.17;58.15;99366.03;5055216;28;20467;-69
2022/10/01 02:40:25;;;;;;;50.15;24.42;;;;;;;20.07;58.12;99347.66;5054989;28;20489;-69
2022/10/01 02:42:58;;;;;;;47.03;24.58;;;;;;;20.25;57.89;99356.81;5054984;28;20044;-68
2022/10/01 02:45:25;;;;;;;45.33;24.42;;;;;;;20.29;57.71;99355.28;5071709;28;20051;-68
2022/10/01 02:47:58;;;;;;;45.47;25.42;;;;;;;20.28;57.67;99337.47;5038168;28;20544;-70
2022/10/01 02:50:29;;;;;;;47.85;24.92;;;;;;;20.38;57.57;99348.53;5071911;28;20471;-69
2022/10/01 02:53:04;;;;;;;45.05;23.85;;;;;;;20.43;57.50;99356.78;5039538;28;20055;-69
2022/10/01 02:55:35;;;;;;;46.58;24.55;;;;;;;20.43;57.67;99354.91;5055517;28;20042;-69
2022/10/01 02:58:01;;;;;;;45.00;23.80;;;;;;;20.28;57.44;99353.66;5072234;28;20059;-69
2022/10/01 03:00:27;;;;;;;45.63;24.35;;;;;;;20.26;57.56;99347.66;5054908;28;20052;-70
2022/10/01 03:02:53;;;;;;;46.72;24.73;;;;;;;20.24;57.49;99338.97;5088204;28;20516;-69
2022/10/01 03:05:19;;;;;;;46.40;23.65;;;;;;;20.27;57.75;99338.50;5054759;28;20044;-70
2022/10/01 03:07:45;;;;;;;49.20;25.20;;;;;;;20.38;57.38;99343.97;5072554;28;20044;-69
2022/10/01 03:10:12;;;;;;;46.58;23.67;;;;;;;20.42;57.07;99349.75;5072250;28;20064;-69
2022/10/01 03:12:42;;;;;;;50.95;25.05;;;;;;;20.31;57.54;99347.81;5088889;28;20048;-67
2022/10/01 03:15:09;;;;;;;45.72;23.85;;;;;;;20.34;57.47;99358.97;5057463;28;20497;-70
2022/10/01 03:17:36;;;;;;;88.35;26.00;;;;;;;20.22;57.49;99359.97;5031735;28;20043;-67
2022/10/01 03:20:02;;;;;;;66.22;27.17;;;;;;;20.23;57.55;99356.22;5072767;28;20040;-68
2022/10/01 03:22:29;;;;;;;46.70;24.75;;;;;;;20.20;57.36;99356.66;5106471;28;20055;-68
2022/10/01 03:24:55;;;;;;;52.88;25.13;;;;;;;20.20;57.60;99356.66;5060185;28;20416;-68
2022/10/01 03:27:23;;;;;;;55.95;26.13;;;;;;;20.20;57.58;99346.72;5044068;28;20047;-68
2022/10/01 03:29:51;;;;;;;114.85;26.73;;;;;;;20.18;57.56;99348.81;5044644;28;20130;-69
2022/10/01 03:32:17;;;;;;;46.15;25.48;;;;;;;20.24;57.58;99342.50;5045305;28;20405;-69
2022/10/01 03:34:43;;;;;;;51.45;25.23;;;;;;;20.18;57.87;99342.56;5044055;28;20093;-68
2022/10/01 03:37:09;;;;;;;55.83;25.27;;;;;;;20.25;57.37;99343.31;5078242;28;20039;-67
2022/10/01 03:39:35;;;;;;;48.90;24.48;;;;;;;20.07;57.81;99336.88;5113082;28;20039;-67
2022/10/01 03:42:01;;;;;;;52.60;25.58;;;;;;;20.20;57.76;99345.88;5077548;28;20488;-67
2022/10/01 03:44:27;;;;;;;113.43;28.48;;;;;;;20.13;57.52;99348.66;5094235;28;20039;-68
2022/10/01 03:46:53;;;;;;;53.95;25.90;;;;;;;20.03;57.70;99343.75;5094089;28;20059;-69
2022/10/01 03:49:19;;;;;;;389.48;33.60;;;;;;;19.86;58.16;99341.91;5077596;28;20047;-67
2022/10/01 03:51:45;;;;;;;100.07;27.95;;;;;;;19.86;58.41;99353.50;5061081;28;20039;-69
2022/10/01 03:54:11;;;;;;;251.60;31.00;;;;;;;19.60;59.11;99345.69;5094712;28;20047;-68
2022/10/01 03:56:39;;;;;;;434.83;33.38;;;;;;;19.61;58.87;99339.25;5077815;28;20054;-69
2022/10/01 03:59:05;;;;;;;407.80;35.28;;;;;;;19.49;59.51;99337.53;5095821;28;20035;-69
2022/10/01 04:01:38;;;;;;;433.13;34.40;;;;;;;19.37;60.21;99344.69;5111520;28;20046;-69
2022/10/01 04:04:04;;;;;;;567.90;42.85;;;;;;;19.34;60.35;99345.94;5111403;28;20031;-68
2022/10/01 04:06:30;;;;;;;376.08;36.53;;;;;;;19.31;60.42;99346.38;5093499;28;20040;-66
2022/10/01 04:08:56;;;;;;;542.65;39.63;;;;;;;19.01;61.09;99331.91;5059871;28;20461;-68
2022/10/01 04:11:23;;;;;;;515.50;37.13;;;;;;;19.07;61.09;99349.88;5093420;28;20035;-68
2022/10/01 04:13:48;;;;;;;633.25;39.35;;;;;;;18.93;61.27;99355.59;5056678;28;20091;-69
2022/10/01 04:16:14;;;;;;;684.03;44.15;;;;;;;19.03;61.12;99354.06;5059407;28;20084;-70
2022/10/01 04:18:41;;;;;;;493.85;36.35;;;;;;;19.18;60.97;99365.31;5060013;28;20521;-69
2022/10/01 04:21:08;;;;;;;680.58;40.63;;;;;;;19.12;60.84;99355.44;5092481;28;20595;-71
2022/10/01 04:23:34;;;;;;;434.95;37.85;;;;;;;19.24;60.91;99356.38;5092067;28;20039;-70
2022/10/01 04:26:01;;;;;;;387.95;39.25;;;;;;;19.28;60.87;99352.19;5091672;28;20585;-70
2022/10/01 04:28:27;;;;;;;250.00;32.47;;;;;;;19.24;60.62;99348.28;5093414;28;20047;-70
2022/10/01 04:31:23;;;;;;;91.82;29.88;;;;;;;19.39;60.44;99358.75;5076936;28;20043;-70
2022/10/01 04:33:39;;;;;;;342.08;36.42;;;;;;;19.39;60.10;99364.16;5079246;28;20062;-69
2022/10/01 04:36:05;;;;;;;158.45;32.25;;;;;;;19.48;60.20;99368.22;5078135;28;20434;-70
2022/10/01 04:38:30;;;;;;;553.45;44.00;;;;;;;19.38;60.22;99363.31;5060928;28;20477;-70
2022/10/01 04:40:56;;;;;;;91.38;29.95;;;;;;;19.56;59.97;99365.19;5093933;28;20409;-70
2022/10/01 04:43:22;;;;;;;500.85;36.85;;;;;;;19.48;59.72;99366.31;5076838;28;20118;-70
2022/10/01 04:45:47;;;;;;;111.63;30.15;;;;;;;19.54;59.82;99362.72;5093742;28;20124;-71
2022/10/01 04:48:13;;;;;;;386.50;37.50;;;;;;;19.66;59.47;99362.84;5059710;28;20474;-73
2022/10/01 04:50:39;;;;;;;92.85;29.85;;;;;;;19.61;59.59;99341.13;5059760;28;20071;-71
2022/10/01 04:53:05;;;;;;;134.65;26.67;;;;;;;19.70;59.17;99367.56;5076790;28;20043;-71
2022/10/01 04:55:30;;;;;;;415.98;33.63;;;;;;;19.60;59.37;99361.84;5059541;28;20036;-70
2022/10/01 04:57:56;;;;;;;313.52;31.63;;;;;;;19.57;59.36;99362.28;5093149;28;20096;-69
2022/10/01 05:00:25;;;;;;;578.63;36.25;;;;;;;19.60;59.58;99356.44;5093243;28;20130;-69
2022/10/01 05:02:52;;;;;;;97.28;28.80;;;;;;;19.76;59.72;99358.56;5060640;28;20564;-71
2022/10/01 05:05:21;;;;;;;96.45;26.63;;;;;;;19.88;59.30;99362.19;5076733;28;20044;-72
2022/10/01 05:07:47;;;;;;;329.08;27.95;;;;;;;19.53;59.35;99360.25;5059425;28;20079;-72
2022/10/01 05:10:15;;;;;;;105.63;25.45;;;;;;;19.78;59.17;99361.06;5076594;28;20052;-69
2022/10/01 05:12:41;;;;;;;400.40;30.80;;;;;;;19.69;59.27;99359.69;5061052;28;20142;-69
2022/10/01 05:15:07;;;;;;;106.72;25.50;;;;;;;19.61;59.49;99363.50;5093827;28;20520;-68
2022/10/01 05:17:34;;;;;;;82.85;25.40;;;;;;;19.49;59.72;99356.38;5043400;28;20036;-69
2022/10/01 05:20:02;;;;;;;168.00;27.55;;;;;;;19.66;59.59;99360.16;5076611;28;20035;-69
2022/10/01 05:22:30;;;;;;;121.25;25.25;;;;;;;19.51;59.52;99357.78;5093871;28;20056;-69
2022/10/01 05:24:57;;;;;;;214.10;26.90;;;;;;;19.49;59.45;99349.13;5093230;28;20046;-69
2022/10/01 05:27:23;;;;;;;92.82;23.90;;;;;;;19.45;59.66;99342.53;5093148;28;20077;-68
2022/10/01 05:29:49;;;;;;;69.85;23.70;;;;;;;19.41;60.14;99340.50;5093066;28;20071;-68
2022/10/01 05:32:16;;;;;;;143.48;27.63;;;;;;;19.20;60.29;99328.25;5076187;28;20071;-69
2022/10/01 05:34:42;;;;;;;54.47;24.35;;;;;;;19.57;59.55;99350.72;5059778;28;20485;-69
2022/10/01 05:37:08;;;;;;;65.18;23.63;;;;;;;19.63;58.97;99349.81;5059502;28;20052;-69
2022/10/01 05:39:33;;;;;;;47.75;23.58;;;;;;;19.80;58.58;99348.19;5093136;28;20449;-68
2022/10/01 05:42:01;;;;;;;44.78;21.48;;;;;;;19.91;58.25;99336.66;5093357;28;20430;-69
2022/10/01 05:44:27;;;;;;;44.75;22.17;;;;;;;20.10;57.67;99336.41;5059899;28;20088;-69
2022/10/01 05:46:53;;;;;;;49.15;25.00;;;;;;;19.93;58.13;99330.00;5062427;28;20051;-69
2022/10/01 05:49:19;;;;;;;51.17;24.13;;;;;;;19.93;58.34;99339.94;5063169;28;20043;-69
2022/10/01 05:51:45;;;;;;;40.90;22.52;;;;;;;20.10;57.86;99338.28;5079791;28;20153;-70
2022/10/01 05:54:15;;;;;;;47.72;24.02;;;;;;;20.26;57.68;99339.56;5063829;28;20458;-70
2022/10/01 05:56:41;;;;;;;70.47;27.55;;;;;;;19.95;57.88;99327.06;5062458;28;20039;-70
2022/10/01 05:59:06;;;;;;;47.78;24.85;;;;;;;20.06;57.60;99329.81;5079653;28;20117;-69
2022/10/01 06:01:32;;;;;;;43.85;24.17;;;;;;;20.18;57.46;99323.69;5062682;28;20040;-69
2022/10/01 06:03:58;;;;;;;43.25;24.30;;;;;;;20.18;57.45;99324.53;5079282;28;20046;-69
2022/10/01 06:06:25;;;;;;;46.45;24.35;;;;;;;20.14;56.97;99298.25;5078977;28;20062;-71
2022/10/01 06:08:52;;;;;;;56.97;26.13;;;;;;;20.11;57.59;99313.78;5063338;28;20063;-71
2022/10/01 06:11:18;;;;;;;46.40;24.70;;;;;;;20.18;57.62;99321.00;5046918;28;20138;-77
2022/10/01 06:13:45;;;;;;;50.25;26.13;;;;;;;20.19;57.73;99322.66;5079240;28;20143;-77
2022/10/01 06:16:12;;;;;;;71.88;26.95;;;;;;;19.99;58.20;99312.06;5097161;28;20067;-77
2022/10/01 06:18:38;;;;;;;75.57;28.65;;;;;;;19.81;58.78;99306.69;5081493;28;20043;-74
2022/10/01 06:21:04;;;;;;;55.95;27.23;;;;;;;20.13;58.27;99320.84;5079994;28;20141;-75
2022/10/01 06:23:30;;;;;;;75.50;28.55;;;;;;;19.94;58.33;99310.06;5097561;28;20036;-78
2022/10/01 06:25:59;;;;;;;69.88;27.83;;;;;;;20.21;58.23;99296.28;5064621;28;20048;-79
2022/10/01 06:28:25;;;;;;;54.33;26.17;;;;;;;20.10;58.31;99309.47;5080773;28;20130;-84
2022/10/01 06:30:50;;;;;;;71.45;28.83;;;;;;;20.00;58.36;99309.16;5063380;28;20118;-76
2022/10/01 06:33:17;;;;;;;64.68;28.40;;;;;;;19.96;58.90;99299.03;5063027;28;20059;-75
2022/10/01 06:35:47;;;;;;;63.28;28.02;;;;;;;20.11;58.36;99277.94;5080736;28;20043;-78
2022/10/01 06:38:15;;;;;;;;;;;;;;;20.40;57.89;99304.13;5096868;28;20043;-78
2022/10/01 06:40:41;;;;;;;70.43;27.52;;;;;;;20.10;58.25;99298.66;5062641;28;20411;-77
2022/10/01 06:43:07;;;;;;;114.25;29.70;;;;;;;19.95;58.73;99300.09;5046092;28;20043;-77
2022/10/01 06:45:38;;;;;;;74.13;28.73;;;;;;;20.05;58.75;99301.22;5079175;28;20122;-78
2022/10/01 06:48:04;;;;;;;115.38;29.77;;;;;;;19.71;59.51;99304.53;5079207;28;20443;-78
2022/10/01 06:50:31;;;;;;;118.82;32.17;;;;;;;19.62;59.98;99272.75;5077737;28;20044;-79
2022/10/01 06:52:57;;;;;;;71.07;31.67;;;;;;;19.58;60.44;99279.59;5095741;28;20393;-80
2022/10/01 06:55:31;;;;;;;110.38;32.08;;;;;;;19.78;60.54;99293.69;5045629;28;20078;-77
2022/10/01 06:57:59;;;;;;;87.80;33.22;;;;;;;19.91;59.98;99296.22;5078109;28;20142;-79
2022/10/01 07:00:26;;;;;;;198.20;35.55;;;;;;;19.76;60.10;99288.50;5076335;28;20101;-78
2022/10/01 07:02:54;;;;;;;102.32;32.15;;;;;;;19.78;60.25;99283.72;5094847;28;20047;-76
2022/10/01 07:05:20;;;;;;;63.20;30.63;;;;;;;19.95;59.81;99281.25;5110630;28;20048;-78
2022/10/01 07:07:47;;;;;;;173.35;32.22;;;;;;;19.81;59.70;99277.88;5078649;28;20050;-79
2022/10/01 07:10:19;;;;;;;157.85;32.47;;;;;;;20.02;59.81;99269.31;5062400;28;20385;-80
2022/10/01 07:12:49;;;;;;;122.60;31.27;;;;;;;20.04;59.70;99286.09;5080244;28;20451;-80
2022/10/01 07:15:17;;;;;;;81.07;32.03;;;;;;;19.96;60.23;99285.56;5065461;28;20064;-80
2022/10/01 07:17:49;;;;;;;226.90;33.97;;;;;;;19.88;60.58;99277.81;5045798;28;20035;-80
2022/10/01 07:20:19;;;;;;;192.52;34.20;;;;;;;19.80;60.53;99276.22;5078462;28;20061;-78
2022/10/01 07:22:46;;;;;;;169.50;35.87;;;;;;;19.85;60.55;99270.19;5076187;28;20104;-80
2022/10/01 07:25:12;;;;;;;248.75;34.35;;;;;;;19.77;60.29;99279.38;5077758;28;20027;-78
2022/10/01 07:27:38;;;;;;;139.63;34.28;;;;;;;19.70;60.86;99281.34;5076057;28;20119;-72
2022/10/01 07:30:05;;;;;;;160.50;37.53;;;;;;;19.81;60.76;99267.09;5043623;28;20170;-79
2022/10/01 07:32:32;;;;;;;71.57;33.20;;;;;;;19.79;59.73;99217.16;5094982;28;20051;-79
2022/10/01 07:34:58;;;;;;;68.22;32.50;;;;;;;20.32;59.52;99271.22;5078532;28;20044;-78
2022/10/01 07:37:24;;;;;;;73.82;30.25;;;;;;;20.55;58.43;99265.91;5079250;28;20040;-79
2022/10/01 07:39:50;;;;;;;231.43;33.38;;;;;;;20.22;58.57;99252.09;5059743;28;20084;-79
2022/10/01 07:42:16;;;;;;;85.28;33.33;;;;;;;20.39;58.39;99255.78;5060807;28;20070;-79
2022/10/01 07:44:42;;;;;;;77.68;32.05;;;;;;;20.49;58.57;99267.66;5094751;28;20047;-77
2022/10/01 07:47:08;;;;;;;64.20;31.23;;;;;;;20.47;58.58;99258.13;5063115;28;20392;-80
2022/10/01 07:49:33;;;;;;;54.53;29.13;;;;;;;20.59;58.34;99253.63;5115613;28;20054;-78
2022/10/01 07:51:59;;;;;;;59.38;29.77;;;;;;;20.52;57.92;99223.19;5080208;28;20093;-79
2022/10/01 07:54:25;;;;;;;51.60;28.30;;;;;;;20.78;57.58;99233.56;5047980;28;20054;-78
2022/10/01 07:56:54;;;;;;;54.85;29.40;;;;;;;20.87;57.23;99224.06;5063310;28;20053;-77
2022/10/01 07:59:26;;;;;;;51.25;27.50;;;;;;;21.17;56.92;99241.81;5080091;28;20046;-79
2022/10/01 08:01:52;;;;;;;63.72;27.75;;;;;;;20.72;57.42;99229.94;5063891;28;20051;-77
2022/10/01 08:07:05;;;;;;;58.55;27.77;;;;;;;20.92;56.71;99226.88;5065283;28;20047;-78
2022/10/01 08:09:31;;;;;;;54.58;27.77;;;;;;;20.76;57.23;99227.56;5064616;28;20156;-77
2022/10/01 08:11:57;;;;;;;55.42;28.10;;;;;;;20.77;57.41;99213.84;5047006;28;20073;-80
2022/10/01 08:14:24;;;;;;;65.35;28.67;;;;;;;20.61;58.10;99216.41;5044796;28;20036;-79
2022/10/01 08:16:49;;;;;;;60.13;29.98;;;;;;;20.63;58.11;99212.44;5061411;28;20039;-79
2022/10/01 08:19:15;;;;;;;60.28;28.95;;;;;;;20.64;57.83;99202.44;5062491;28;20055;-78
2022/10/01 08:21:41;;;;;;;58.10;31.85;;;;;;;20.82;57.77;99211.28;5061945;28;20059;-75
2022/10/01 08:24:10;;;;;;;51.33;27.73;;;;;;;21.00;56.99;99213.06;5061333;28;20417;-76
2022/10/01 08:26:36;;;;;;;44.75;26.50;;;;;;;20.96;57.30;99201.09;5061291;28;20058;-74
2022/10/01 08:29:04;;;;;;;56.28;27.52;;;;;;;21.20;56.77;99202.72;5062040;28;20040;-75
2022/10/01 08:31:30;;;;;;;46.60;26.60;;;;;;;21.27;56.34;99181.81;5044663;28;20222;-74
2022/10/01 08:33:56;;;;;;;41.65;25.58;;;;;;;21.56;56.01;99202.41;5062947;28;20095;-76
2022/10/01 08:36:22;;;;;;;40.65;26.35;;;;;;;21.62;55.51;99191.47;5078569;28;20159;-77
2022/10/01 08:38:48;;;;;;;47.80;25.40;;;;;;;21.60;54.58;99196.28;5078526;28;20163;-74
2022/10/01 08:41:32;;;;;;;43.50;24.23;;;;;;;21.71;54.92;99173.03;5044430;28;20327;-76
2022/10/01 08:43:58;;;;;;;50.88;27.48;;;;;;;21.48;55.60;99187.41;5061159;28;20039;-74
2022/10/01 08:46:28;;;;;;;49.83;26.05;;;;;;;21.30;56.13;99182.16;5044957;28;20046;-73
2022/10/01 08:49:12;;;;;;;51.75;27.88;;;;;;;21.19;55.93;99141.66;5046186;28;20043;-75
2022/10/01 08:51:53;;;;;;;52.45;29.40;;;;;;;21.12;56.48;99163.41;5062044;28;20048;-76
2022/10/01 08:54:35;;;;;;;47.17;27.35;;;;;;;21.38;56.67;99170.16;5077756;28;20063;-75
2022/10/01 08:57:04;;;;;;;48.60;28.05;;;;;;;21.22;56.99;99173.59;5077253;28;20074;-75
2022/10/01 08:59:52;;;;;;;55.17;29.38;;;;;;;21.27;56.65;99176.41;5043936;28;20044;-74
2022/10/01 09:02:29;;;;;;;52.40;28.08;;;;;;;21.23;56.69;99170.66;5077601;28;20055;-77
2022/10/01 09:05:01;;;;;;;51.80;28.92;;;;;;;21.20;57.20;99168.41;5078167;28;20043;-74
2022/10/01 09:07:41;;;;;;;53.67;29.35;;;;;;;21.45;56.48;99173.53;5079577;28;20039;-75
2022/10/01 09:10:34;;;;;;;54.80;29.48;;;;;;;21.34;56.64;99167.09;5079243;28;20127;-74
2022/10/01 09:13:18;;;;;;;51.30;29.52;;;;;;;21.22;56.59;99163.63;5077274;28;20047;-77
2022/10/01 09:16:14;;;;;;;48.58;28.20;;;;;;;21.41;56.60;99164.28;5060691;28;20092;-76
2022/10/01 09:19:09;;;;;;;50.35;28.60;;;;;;;21.33;56.17;99157.38;5060523;28;20381;-75
2022/10/01 09:21:42;;;;;;;50.00;29.45;;;;;;;21.20;57.09;99163.03;5078474;28;20120;-73
2022/10/01 09:24:14;;;;;;;52.42;28.75;;;;;;;21.36;56.64;99153.34;5094153;28;20073;-75
2022/10/01 09:26:49;;;;;;;45.67;27.77;;;;;;;21.48;56.72;99154.97;5076637;28;20079;-76
2022/10/01 09:29:23;;;;;;;50.97;27.40;;;;;;;21.46;56.44;99156.28;5042767;28;20047;-76
2022/10/01 09:31:49;;;;;;;49.65;26.75;;;;;;;21.32;56.96;99146.81;5076768;28;20058;-75
2022/10/01 09:34:37;;;;;;;46.17;26.38;;;;;;;21.41;56.56;99154.31;5078310;28;20051;-76
2022/10/01 09:37:04;;;;;;;49.60;28.80;;;;;;;21.19;57.05;99147.88;5060072;28;20121;-73
2022/10/01 09:40:03;;;;;;;48.47;27.73;;;;;;;21.42;56.31;99138.91;5062923;28;20369;-73
2022/10/01 09:42:31;;;;;;;44.55;24.75;;;;;;;21.29;56.88;99131.06;5023846;28;20043;-74
2022/10/01 09:44:58;;;;;;;43.08;26.10;;;;;;;21.39;56.84;99124.00;5065009;28;20043;-73
2022/10/01 09:47:25;;;;;;;46.70;27.73;;;;;;;21.42;56.84;99120.81;5082025;28;20043;-74
2022/10/01 09:49:51;;;;;;;40.47;25.70;;;;;;;21.19;56.97;99130.84;5065242;28;20043;-74
2022/10/01 09:52:25;;;;;;;43.72;26.08;;;;;;;21.24;57.21;99114.75;5082223;28;20134;-74
2022/10/01 09:55:06;;;;;;;41.70;25.50;;;;;;;21.48;56.79;99124.47;5081980;28;20052;-74
2022/10/01 09:57:37;;;;;;;;;;;;;;;21.58;56.54;99114.66;5099691;28;20051;-74
2022/10/01 10:00:29;;;;;;;44.92;25.02;;;;;;;21.58;56.28;99108.41;5065378;28;19927;-78
2022/10/01 10:02:55;;;;;;;42.60;26.35;;;;;;;21.11;57.15;99079.94;5060835;28;20092;-74
2022/10/01 10:05:24;;;;;;;39.08;25.33;;;;;;;21.53;56.33;99063.22;5080172;28;20382;-74
2022/10/01 10:08:04;;;;;;;39.60;23.92;;;;;;;21.77;55.73;99071.22;5063663;28;20040;-74
2022/10/01 10:10:34;;;;;;;37.17;23.88;;;;;;;21.93;55.72;99081.22;5097463;28;20043;-74
2022/10/01 10:13:09;;;;;;;42.08;24.17;;;;;;;22.24;54.87;99065.28;5064054;28;20050;-74
2022/10/01 10:15:58;;;;;;;37.15;22.90;;;;;;;22.29;54.08;99072.66;5063501;28;20367;-74
2022/10/01 10:18:29;;;;;;;41.03;23.73;;;;;;;22.20;54.73;99080.38;5063900;28;20100;-74
2022/10/01 10:20:56;;;;;;;42.65;24.38;;;;;;;21.98;55.22;99071.34;5096877;28;20079;-74
2022/10/01 10:23:28;;;;;;;38.20;22.85;;;;;;;22.12;55.07;99071.84;5063727;28;20434;-74
2022/10/01 10:26:04;;;;;;;37.47;23.35;;;;;;;22.34;54.53;99068.13;5096849;28;20039;-74
2022/10/01 10:28:43;;;;;;;35.60;23.98;;;;;;;22.23;54.13;99073.63;5063452;28;20131;-74
2022/10/01 10:31:13;;;;;;;43.75;22.92;;;;;;;22.17;54.38;99064.59;5096941;28;20051;-74
2022/10/01 10:33:45;;;;;;;35.05;23.50;;;;;;;22.13;54.49;99071.59;5062352;28;20150;-74
2022/10/01 10:36:15;;;;;;;39.97;23.92;;;;;;;22.06;54.95;99070.09;5097082;28;20043;-74
2022/10/01 10:38:52;;;;;;;34.03;21.23;;;;;;;22.16;54.60;99070.25;5097205;28;20069;-74
2022/10/01 10:41:24;;;;;;;36.38;22.20;;;;;;;21.98;54.82;99051.59;5063176;28;20074;-79
2022/10/01 10:43:56;;;;;;;30.33;20.80;;;;;;;21.92;54.62;99061.50;5080783;28;20485;-74
2022/10/01 10:46:30;;;;;;;33.05;21.77;;;;;;;22.03;54.47;99048.97;5079375;28;20130;-74
2022/10/01 10:49:05;;;;;;;27.27;19.92;;;;;;;22.47;53.58;99075.09;5114156;28;20077;-74
2022/10/01 10:51:50;;;;;;;27.80;19.27;;;;;;;23.20;52.12;99070.97;5096477;28;20055;-74
2022/10/01 10:54:24;;;;;;;27.65;17.83;;;;;;;23.81;50.81;99066.25;5063639;28;20120;-74
2022/10/01 10:56:53;;;;;;;21.77;14.95;;;;;;;26.00;46.19;99070.50;5080510;28;20047;-74
2022/10/01 10:59:19;;;;;;;18.77;13.95;;;;;;;27.85;41.80;99080.06;5080135;28;20468;-76
2022/10/01 11:01:46;;;;;;;19.67;13.80;;;;;;;28.65;39.51;99082.19;5063047;28;20055;-74
2022/10/01 11:04:35;;;;;;;21.00;15.05;;;;;;;27.50;39.97;99055.75;5079503;28;20389;-74
2022/10/01 11:07:01;;;;;;;22.33;15.85;;;;;;;26.98;41.43;99069.88;5062612;28;20055;-73
2022/10/01 11:09:44;;;;;;;22.35;16.80;;;;;;;25.48;43.37;99035.28;5080505;28;20130;-73
2022/10/01 11:12:35;;;;;;;22.75;17.25;;;;;;;25.04;44.95;99065.81;5115991;28;20073;-73
2022/10/01 11:15:21;;;;;;;25.80;16.60;;;;;;;24.92;45.75;99047.84;5080545;28;20039;-73
2022/10/01 11:17:57;;;;;;;24.63;17.20;;;;;;;24.61;46.18;99048.75;5079512;28;20055;-73
2022/10/01 11:20:35;;;;;;;25.10;16.77;;;;;;;24.68;46.74;99043.09;5079744;28;20445;-74
2022/10/01 11:23:10;;;;;;;23.00;16.55;;;;;;;24.50;46.74;99033.47;5062352;28;20472;-73
2022/10/01 11:25:57;;;;;;;21.35;16.40;;;;;;;24.78;45.86;99035.84;5062244;28;20040;-74
2022/10/01 11:28:55;;;;;;;24.80;17.00;;;;;;;25.01;45.46;99036.47;5079316;28;20069;-74
2022/10/01 11:32:01;;;;;;;22.98;16.10;;;;;;;25.05;45.02;99026.72;5030398;28;20035;-77
2022/10/01 11:35:06;;;;;;;26.63;17.88;;;;;;;24.52;46.32;99020.47;5061091;28;20064;-74